createdAt,value
2023-01-04T00:00:36.299Z,12.73
2023-01-04T00:04:37.790Z,13.30
2023-01-04T00:08:40.299Z,15.05
2023-01-04T00:12:41.878Z,14.45
2023-01-04T00:16:43.521Z,13.35
2023-01-04T00:20:45.181Z,12.20
2023-01-04T00:24:47.522Z,12.68
2023-01-04T00:28:54.557Z,13.65
2023-01-04T00:32:57.943Z,12.55
2023-01-04T00:36:59.860Z,12.45
2023-01-04T00:41:02.060Z,11.18
2023-01-04T00:45:03.861Z,12.60
2023-01-04T00:49:06.616Z,12.88
2023-01-04T00:53:08.274Z,15.25
2023-01-04T00:57:10.079Z,13.95
2023-01-04T01:01:12.007Z,17.25
2023-01-04T01:05:13.686Z,12.45
2023-01-04T01:09:17.016Z,13.05
2023-01-04T01:13:19.082Z,13.00
2023-01-04T01:17:21.295Z,11.88
2023-01-04T01:21:25.221Z,11.77
2023-01-04T01:25:27.041Z,12.73
2023-01-04T01:29:28.798Z,11.68
2023-01-04T01:33:30.504Z,13.20
2023-01-04T01:37:31.969Z,14.30
2023-01-04T01:41:35.746Z,12.35
2023-01-04T01:45:37.750Z,12.63
2023-01-04T01:49:40.318Z,9.85
2023-01-04T01:53:44.401Z,10.13
2023-01-04T01:57:48.002Z,9.52
2023-01-04T02:01:49.855Z,9.40
2023-01-04T02:05:54.094Z,10.77
2023-01-04T02:09:56.424Z,9.80
2023-01-04T02:14:17.871Z,9.38
2023-01-04T02:18:25.588Z,13.30
2023-01-04T02:22:30.075Z,11.18
2023-01-04T02:27:12.276Z,11.60
2023-01-04T02:31:22.891Z,9.35
2023-01-04T02:35:32.651Z,12.75
2023-01-04T02:39:34.091Z,10.05
2023-01-04T02:43:57.620Z,10.82
2023-01-04T02:48:22.924Z,10.90
2023-01-04T02:52:24.704Z,9.80
2023-01-04T02:56:47.932Z,10.13
2023-01-04T03:01:25.852Z,11.30
2023-01-04T03:05:55.686Z,8.57
2023-01-04T03:10:05.922Z,8.95
2023-01-04T03:14:31.360Z,9.98
2023-01-04T03:18:38.616Z,9.88
2023-01-04T03:23:02.568Z,10.52
2023-01-04T03:27:24.705Z,8.93
2023-01-04T03:32:13.426Z,11.90
2023-01-04T03:36:24.091Z,8.63
2023-01-04T03:40:46.940Z,9.40
2023-01-04T03:45:23.008Z,9.32
2023-01-04T03:49:50.364Z,8.98
2023-01-04T03:57:58.788Z,8.60
2023-01-04T04:02:00.400Z,7.75
2023-01-04T04:06:20.583Z,7.43
2023-01-04T04:10:22.127Z,4.80
2023-01-04T04:14:23.681Z,5.72
2023-01-04T04:18:25.369Z,6.18
2023-01-04T04:22:26.979Z,6.95
2023-01-04T04:26:29.070Z,7.82
2023-01-04T04:30:30.837Z,5.97
2023-01-04T04:34:32.396Z,6.25
2023-01-04T04:38:34.465Z,5.68
2023-01-04T04:42:36.186Z,6.05
2023-01-04T04:46:37.969Z,5.35
2023-01-04T04:50:39.484Z,5.10
2023-01-04T04:54:41.015Z,5.43
2023-01-04T04:58:42.756Z,5.28
2023-01-04T05:02:44.408Z,5.53
2023-01-04T05:06:47.471Z,6.28
2023-01-04T05:10:49.069Z,6.40
2023-01-04T05:14:50.551Z,5.68
2023-01-04T05:18:52.387Z,5.43
2023-01-04T05:22:53.883Z,5.10
2023-01-04T05:26:55.346Z,6.03
2023-01-04T05:30:57.269Z,5.13
2023-01-04T05:34:58.956Z,4.50
2023-01-04T05:39:00.453Z,4.90
2023-01-04T05:43:02.036Z,3.67
2023-01-04T05:47:03.525Z,4.53
2023-01-04T05:51:05.216Z,5.93
2023-01-04T05:55:07.007Z,5.10
2023-01-04T05:59:08.420Z,5.22
2023-01-04T06:03:10.050Z,4.57
2023-01-04T06:07:11.717Z,4.18
2023-01-04T06:11:13.162Z,5.40
2023-01-04T06:15:15.083Z,5.43
2023-01-04T06:19:16.769Z,5.65
2023-01-04T06:23:18.322Z,6.80
2023-01-04T06:27:20.093Z,5.72
2023-01-04T06:31:21.657Z,5.45
2023-01-04T06:35:23.192Z,3.28
2023-01-04T06:39:25.221Z,4.10
2023-01-04T06:43:27.442Z,6.00
2023-01-04T06:47:28.861Z,4.90
2023-01-04T06:51:30.740Z,5.32
2023-01-04T06:55:32.194Z,4.00
2023-01-04T06:59:34.212Z,3.30
2023-01-04T07:03:35.691Z,5.25
2023-01-04T07:07:37.340Z,6.07
2023-01-04T07:11:39.169Z,5.22
2023-01-04T07:15:41.430Z,4.90
2023-01-04T07:19:43.696Z,3.05
2023-01-04T07:23:45.632Z,3.00
2023-01-04T07:27:54.052Z,5.00
2023-01-04T07:31:56.168Z,4.35
2023-01-04T07:36:02.267Z,3.33
2023-01-04T07:40:04.110Z,4.15
2023-01-04T07:44:05.994Z,2.35
2023-01-04T07:48:07.484Z,4.53
2023-01-04T07:52:08.956Z,3.38
2023-01-04T07:56:15.162Z,3.28
2023-01-04T08:00:20.176Z,2.65
2023-01-04T08:04:28.345Z,3.30
2023-01-04T08:08:33.208Z,3.05
2023-01-04T08:12:34.747Z,2.60
2023-01-04T08:16:38.388Z,4.53
2023-01-04T08:20:39.998Z,2.78
2023-01-04T08:24:41.931Z,4.88
2023-01-04T08:28:43.784Z,1.30
2023-01-04T08:32:45.252Z,2.72
2023-01-04T08:36:48.973Z,2.55
2023-01-04T08:41:01.704Z,2.03
2023-01-04T08:45:09.895Z,3.08
2023-01-04T08:49:11.439Z,3.95
2023-01-04T08:53:13.175Z,2.35
2023-01-04T08:57:15.797Z,7.60
2023-01-04T09:01:17.408Z,3.58
2023-01-04T09:05:22.529Z,4.20
2023-01-04T09:09:24.725Z,3.63
2023-01-04T09:13:26.256Z,2.55
2023-01-04T09:17:27.704Z,2.38
2023-01-04T09:21:29.515Z,2.53
2023-01-04T09:25:31.480Z,2.53
2023-01-04T09:29:33.085Z,2.00
2023-01-04T09:34:11.403Z,1.83
2023-01-04T09:37:56.936Z,2.88
2023-01-04T09:42:05.068Z,1.70
2023-01-04T09:46:08.507Z,1.73
2023-01-04T09:50:21.214Z,1.92
2023-01-04T09:58:36.986Z,1.98
2023-01-04T10:02:54.835Z,2.00
2023-01-04T10:07:04.479Z,2.78
2023-01-04T10:11:20.039Z,2.95
2023-01-04T10:15:33.294Z,5.07
2023-01-04T10:25:13.581Z,2.95
2023-01-04T10:29:43.407Z,3.30
2023-01-04T10:33:50.509Z,2.95
2023-01-04T10:37:57.488Z,2.20
2023-01-04T10:42:03.855Z,1.25
2023-01-04T10:46:05.322Z,1.55
2023-01-04T10:50:25.694Z,2.83
2023-01-04T10:54:35.041Z,3.15
2023-01-04T10:58:56.168Z,1.42
2023-01-04T11:03:08.727Z,2.15
2023-01-04T11:07:19.388Z,1.30
2023-01-04T11:11:25.065Z,3.95
2023-01-04T11:15:29.104Z,1.67
2023-01-04T11:19:30.484Z,1.20
2023-01-04T11:23:31.954Z,1.15
2023-01-04T11:27:42.403Z,1.65
2023-01-04T11:31:50.979Z,1.42
2023-01-04T11:35:59.503Z,1.63
2023-01-04T11:40:16.495Z,4.32
2023-01-04T11:44:19.426Z,3.50
2023-01-04T11:48:31.467Z,1.20
2023-01-04T11:52:38.055Z,2.42
2023-01-04T11:57:11.407Z,1.27
2023-01-04T12:01:22.503Z,2.20
2023-01-04T12:05:29.902Z,4.80
2023-01-04T12:09:32.172Z,2.55
2023-01-04T12:13:34.360Z,1.88
2023-01-04T12:17:46.787Z,2.30
2023-01-04T12:21:53.715Z,2.85
2023-01-04T12:25:55.914Z,4.50
2023-01-04T12:29:59.953Z,3.25
2023-01-04T12:34:21.991Z,2.35
2023-01-04T12:38:52.225Z,1.88
2023-01-04T12:43:26.893Z,3.40
2023-01-04T12:47:46.852Z,1.50
2023-01-04T12:52:12.733Z,2.17
2023-01-04T12:56:10.556Z,2.05
2023-01-04T13:00:13.631Z,2.15
2023-01-04T13:04:40.924Z,1.63
2023-01-04T13:08:42.895Z,1.10
2023-01-04T13:12:59.621Z,2.50
2023-01-04T13:17:14.062Z,4.20
2023-01-04T13:21:17.186Z,1.85
2023-01-04T13:25:25.148Z,1.20
2023-01-04T13:29:30.955Z,2.00
2023-01-04T13:33:33.937Z,4.43
2023-01-04T13:37:38.268Z,1.10
2023-01-04T13:41:43.698Z,1.65
2023-01-04T13:46:11.986Z,1.55
2023-01-04T13:50:30.181Z,2.45
2023-01-04T13:54:35.324Z,1.42
2023-01-04T13:58:37.015Z,1.02
2023-01-04T14:02:38.932Z,1.83
2023-01-04T14:06:42.217Z,1.80
2023-01-04T14:10:44.563Z,3.05
2023-01-04T14:14:51.691Z,1.75
2023-01-04T14:18:53.562Z,1.55
2023-01-04T14:22:57.918Z,1.00
2023-01-04T14:26:59.493Z,1.67
2023-01-04T14:31:01.367Z,1.20
2023-01-04T14:35:07.112Z,1.52
2023-01-04T14:39:11.839Z,1.05
2023-01-04T14:43:34.737Z,1.63
2023-01-04T14:47:36.365Z,2.17
2023-01-04T14:51:44.171Z,1.38
2023-01-04T14:55:46.080Z,2.20
2023-01-04T14:59:47.995Z,2.33
2023-01-04T15:03:49.680Z,5.43
2023-01-04T15:07:51.348Z,1.67
2023-01-04T15:11:53.079Z,1.63
2023-01-04T15:15:54.817Z,2.97
2023-01-04T15:19:56.337Z,2.00
2023-01-04T15:23:57.986Z,2.35
2023-01-04T15:27:59.532Z,1.23
2023-01-04T15:32:01.207Z,1.30
2023-01-04T15:36:21.704Z,1.10
2023-01-04T15:40:25.573Z,2.60
2023-01-04T15:44:27.712Z,3.70
2023-01-04T15:48:32.096Z,1.92
2023-01-04T15:52:33.595Z,1.33
2023-01-04T15:56:35.086Z,4.57
2023-01-04T16:00:39.627Z,1.33
2023-01-04T16:04:41.177Z,1.73
2023-01-04T16:08:43.502Z,1.40
2023-01-04T16:12:47.644Z,1.30
2023-01-04T16:16:51.632Z,2.88
2023-01-04T16:20:53.501Z,1.00
2023-01-04T16:25:11.678Z,1.88
2023-01-04T16:29:13.953Z,2.47
2023-01-04T16:33:15.697Z,2.35
2023-01-04T16:37:17.383Z,2.28
2023-01-04T16:41:21.423Z,4.68
2023-01-04T16:45:23.011Z,1.95
2023-01-04T16:49:24.835Z,2.10
2023-01-04T16:53:26.567Z,3.05
2023-01-04T16:57:28.276Z,0.60
2023-01-04T17:01:34.909Z,0.88
2023-01-04T17:05:40.311Z,1.05
2023-01-04T17:09:41.844Z,2.60
2023-01-04T17:13:43.409Z,2.22
2023-01-04T17:17:45.709Z,1.17
2023-01-04T17:21:47.381Z,1.52
2023-01-04T17:25:48.916Z,1.13
2023-01-04T17:29:50.669Z,1.45
2023-01-04T17:33:52.291Z,1.40
2023-01-04T17:37:53.793Z,1.02
2023-01-04T17:41:55.543Z,2.60
2023-01-04T17:46:01.711Z,1.90
2023-01-04T17:50:04.025Z,4.68
2023-01-04T17:54:06.252Z,3.03
2023-01-04T17:58:10.132Z,2.22
2023-01-04T18:02:14.482Z,1.63
2023-01-04T18:06:25.423Z,1.17
2023-01-04T18:10:48.589Z,1.45
2023-01-04T18:14:49.358Z,0.85
2023-01-04T18:18:52.517Z,2.25
2023-01-04T18:22:54.278Z,0.90
2023-01-04T18:27:21.587Z,0.80
2023-01-04T18:31:19.854Z,1.67
2023-01-04T18:35:21.528Z,2.78
2023-01-04T18:39:23.072Z,0.60
2023-01-04T18:43:24.977Z,1.17
2023-01-04T18:47:28.074Z,0.60
2023-01-04T18:51:29.961Z,0.98
2023-01-04T18:55:31.443Z,1.13
2023-01-04T18:59:33.305Z,0.80
2023-01-04T19:03:39.929Z,1.02
2023-01-04T19:07:41.605Z,1.15
2023-01-04T19:11:45.895Z,1.77
2023-01-04T19:15:47.951Z,1.17
2023-01-04T19:19:50.468Z,0.85
2023-01-04T19:23:53.033Z,1.00
2023-01-04T19:27:54.595Z,1.08
2023-01-04T19:31:56.547Z,2.30
2023-01-04T19:35:58.190Z,0.68
2023-01-04T19:39:59.798Z,1.02
2023-01-04T19:44:02.506Z,1.73
2023-01-04T19:48:04.348Z,1.60
2023-01-04T19:52:06.108Z,0.60
2023-01-04T19:56:08.818Z,2.05
2023-01-04T20:00:11.233Z,1.75
2023-01-04T20:04:14.117Z,0.75
2023-01-04T20:08:15.651Z,0.90
2023-01-04T20:12:17.478Z,0.88
2023-01-04T20:16:19.139Z,0.95
2023-01-04T20:20:22.046Z,1.58
2023-01-04T20:24:23.680Z,0.95
2023-01-04T20:28:25.458Z,0.95
2023-01-04T20:32:27.213Z,1.83
2023-01-04T20:36:31.650Z,1.23
2023-01-04T20:40:33.543Z,0.82
2023-01-04T20:44:35.355Z,1.40
2023-01-04T20:48:37.279Z,1.20
2023-01-04T20:52:38.750Z,0.65
2023-01-04T20:56:40.611Z,1.23
2023-01-04T21:00:43.662Z,2.70
2023-01-04T21:04:46.874Z,1.27
2023-01-04T21:08:54.838Z,1.77
2023-01-04T21:12:57.102Z,1.73
2023-01-04T21:16:58.803Z,0.85
2023-01-04T21:21:08.132Z,0.85
2023-01-04T21:25:10.148Z,1.90
2023-01-04T21:29:11.802Z,1.20
2023-01-04T21:33:14.589Z,0.98
2023-01-04T21:37:16.190Z,1.20
2023-01-04T21:41:18.551Z,0.80
2023-01-04T21:45:20.122Z,1.88
2023-01-04T21:49:21.668Z,1.10
2023-01-04T21:53:23.384Z,0.90
2023-01-04T21:57:25.378Z,1.60
2023-01-04T22:01:34.480Z,1.50
2023-01-04T22:05:36.624Z,1.15
2023-01-04T22:09:38.566Z,1.33
2023-01-04T22:13:40.252Z,0.95
2023-01-04T22:17:42.183Z,1.15
2023-01-04T22:21:43.789Z,1.00
2023-01-04T22:25:45.286Z,0.60
2023-01-04T22:29:46.892Z,0.82
2023-01-04T22:33:48.394Z,1.50
2023-01-04T22:37:49.964Z,1.83
2023-01-04T22:41:51.448Z,0.75
2023-01-04T22:46:00.553Z,1.02
2023-01-04T22:50:04.503Z,5.72
2023-01-04T22:54:06.397Z,1.27
2023-01-04T22:58:08.119Z,2.78
2023-01-04T23:02:09.823Z,1.60
2023-01-04T23:06:12.602Z,1.23
2023-01-04T23:10:14.147Z,0.50
2023-01-04T23:14:17.178Z,0.88
2023-01-04T23:18:19.091Z,2.33
2023-01-04T23:22:20.798Z,1.35
2023-01-04T23:26:23.883Z,3.53
2023-01-04T23:30:25.628Z,1.20
2023-01-04T23:34:27.334Z,1.10
2023-01-04T23:38:29.090Z,0.88
2023-01-04T23:42:30.590Z,0.90
2023-01-04T23:46:32.245Z,0.50
2023-01-04T23:50:33.812Z,0.70
2023-01-04T23:54:35.504Z,1.58
2023-01-04T23:58:37.104Z,0.70
